Teraz jest piątek, 14 gru 2018, 11:47


Wskaźniki burzowe... nie przewidują burz.

Dział przeznaczony na dyskusje dotyczące ciekawych zjawisk meteorologicznych oraz zmian klimatycznych.
  • Autor
  • Wiadomość

Mateusz_R

Wskaźniki burzowe... nie przewidują burz.

Postpiątek, 2 maja 2008, 17:41

Opiszę tutaj bardzo ciekawe zjawisko pogodowe a raczej jego brak.

Coraz częściej korzyta się ze wskaźników burzowych. CAPE, LIFT czy SHOW wg niektórych są poprostu niezawodne. Jednak czas aby udowodnić ze czasami są bezużyteczne.

Przykład z dzisiaj tj. 02.05.2008r. 00UTC Norman.
http://img180.imageshack.us/img180/5739/sondaz1gx3.gif
http://img180.imageshack.us/img180/3391/sondaz2op8.gif

I popatrzmy:
CAPE 4900J/kg
LIFT -11 st. C
SHOW -7
SRH 256 m^2/s^2
SHEAR 0-6km 55Kts

I na pierwszy rzut oka wydaje sie ze powinniśmy się spodziewać ekstremalnych zjawisk, niszczycielski grad, potężny downburst, tornada może F5.
Tyle że jesteśmy w grubym błędzie:
KOUN 020131Z AUTO 15019G25KT 10SM CLR 26/21 A2943 RMK AO2 LTG DSNT NE
KOUN 020111Z AUTO 15019G24KT 10SM CLR 26/21 A2942 RMK AO2 LTG DSNT NE
KOUN 020051Z AUTO 15016G27KT 10SM SCT031 26/21 A2942 RMK AO2 LTG DSNT NE
KOUN 020031Z AUTO 15017G26KT 10SM BKN033 BKN038 27/21 A2943 RMK AO2 LTG DSNT NE
KOUN 020012Z AUTO 15018G26KT 10SM BKN033 BKN043 27/21 A2943 RMK AO2 LTG DSNT N AND NE
KOUN 012355Z AUTO 14024G30KT 10SM SCT033 SCT040 SCT050 27/21 A2943 RMK AO2
KOUN 012332Z AUTO 14021G28KT 10SM SCT050 SCT060 SCT110 28/21 A2943 RMK AO2 LTG DSNT S AND NW


Nawet burzy nie było, nie mówiąc o groźnych zjawiskach. Przyczyna - nie wiem. Nie ma warstwy chamującej konwekcje, wogole zadnych inwersji. Co prawda wiatr w porywach do 30Kts ale to jest tylko 55,6km/h.
Barycznie stacja była pod wpływem głebszego niżu. Co ciekawe niz dosc suchy bo jak na cisnienie 990hPa i duże rozmiary dawał małe opady.
Widać ile są warte wskaźniki którymi na codzień operujemy. Napewno są słuszne ale trzeba je z czymś łączyc...
Offline

diskacz

Zarejestrowany

Zarejestrowany

  • Posty: 30
  • Dołączył(a): poniedziałek, 12 lis 2007, 17:46
  • Lokalizacja: Poznań
  • Numer GG: 0

Re: Wskaźniki burzowe... nie przewidują burz.

Postsobota, 3 maja 2008, 17:34

Ale ok. 18 km na NW trochę później, solidnie powiało:

SPECI KOKC 020538Z 29021G64KT 2SM +TSRA SQ BKN025CB BKN060 BKN200 16/13 A2947 RMK AO2 PK WND 27064/0531 WSHFT 0522 TSB00RAB33 PRESRR CONS LTGICCC OHD ALQDS TS OHD ALQDS MOV E P0000 $

Mateusz_R

Re: Wskaźniki burzowe... nie przewidują burz.

Postsobota, 3 maja 2008, 17:41

No powiało ponad 100km/h tyle że pamiętajmy że to wiatr max od pstatniego pomiaru a nie jak w polsce poryw za 2min. I do tego ile czasu mineło, ponad 5h. W chwili pomiaru(przynajmniej mniej więcej) jakies silniejsze opady pojawialy sie, ale na bardzo malym obszarze.
Obrazek
Zastanawiające jest dlaczego mimo ekstremalnie wysokich wskaznikow nie bylo burz, dopiero potem to sie ukatywniło. Odpowiedź może być w wilgotnosci względnej. W środkowej i górnej troposferze było bardzo suche, w porównaniu z warstwą przyziemną powietrze. Dochodzę do wniosku że to może parowanie w wyższej warstwie wywołało że zjawiska nie pojawiały się. Inwersji termicznej nie widać, przynajmniej nie była ona zbyt silna.

Warto będzie wyszukiwać przykłady takich zjawisk by odkryć jakąś zależność.
Offline

Rafał_L

Sympatyk

Sympatyk

  • Posty: 289
  • Dołączył(a): niedziela, 20 kwi 2008, 21:32
  • Lokalizacja: Koziegłowy k/Poznania (wielkopolskie)
  • Pseudonim: Raflis
  • Numer GG: 0

Wskaźniki burzowe... nie przewidują burz.

Postczwartek, 28 sie 2008, 11:35

Uważam, że podstawową przyczyną braku burz była niska wilgotnośc powietrza. Moim zdaniem, najważniejszym czynnikiem tworzenia się chmur jest właśnie zawartośc pary wodnej w powietrzu. Wracając do tego zjawiska, prawdopodobnie mogło byc tak: najpierw powstały w bardzo sprzyjających warunkach liczne bąble ciepłego powietrza, ale zawierające mało wody. W wyższych partiach atmosfery bąble te adiabatycznie ochłodziły się, ale bez powstania wiekszych chmur. Brak większych zasobów wody zahamował rozwój chmur i spowodował szybsze wyrównanie się temperatury pomiędzy wznoszącą się kolumną powietrza, a otoczeniem.
Nieraz latem obserwowałem podobne zjawiska u siebie, na Kujawach. Warunki do tworzenia się burz były dobre, ale cumulonimbusy tworzyły się wzdłuż linii Wisły, a w mojej okolicy co najwyżej Cu con z zanikającym wierzchołkiem i bez opadów (niższa wilgotnośc względna powietrza).
Pozdrawiam,
Rafał
email: rlisiak4@wp.pl

Powrót do Ciekawe zjawiska pogodowe i zmiany klimatu

Kto przegląda forum

Użytkownicy przeglądający ten dział: Brak zidentyfikowanych użytkowników i 1 gość

cron